Gaz Palmyra — 3FCO4 — position and weather

sailwx.info

Track history (hours):
 
Tides and Currents Weather Stations Pressure Air Temp Water Temp Dewpoint Dewpoint Depression Visibility Wind Speed Wind Dir Waves Ship Positions

Gaz Palmyra

Last reported at 2014-Sep-20 11:29 UTC. Time now 2014-Sep-23 16:25 UTC.
Position N 36°46' E 003°05'.

Length 137 m; draft 8 m.

Type: Ship (hazmat cat C). MMSI: 353247000.

Date/timePositionNaut miles runAvg speedWind from/ knotsBaromVisibWave heightAir tempDewpointWater temp
2014-Sep-20 11:29N 36°46' E 003°05'2 2.0
2014-Sep-20 10:33N 36°46' E 003°07'0 0.0
2014-Sep-20 09:21N 36°46' E 003°07'0 0.0
2014-Sep-20 06:33N 36°46' E 003°07'0 0.1
2014-Sep-20 05:27N 36°47' E 003°07'0 0.1
2014-Sep-20 03:30N 36°46' E 003°06'0 0.0
2014-Sep-19 17:33N 36°46' E 003°06'0 0.1
2014-Sep-19 16:21N 36°46' E 003°07'  
2014-Sep-16 13:03N 35°53' W 000°15'2 4.2
2014-Sep-16 12:33N 35°55' W 000°14'1 0.8
2014-Sep-16 11:11N 35°56' W 000°14'2 2.6
2014-Sep-16 10:16N 35°58' W 000°14'3 2.5
2014-Sep-16 09:13N 36°01' W 000°14'0 0.1
2014-Sep-16 08:32N 36°01' W 000°14'0 0.2
2014-Sep-16 07:32N 36°01' W 000°13'0 0.2
2014-Sep-16 06:15N 36°01' W 000°13'0 0.2
2014-Sep-16 05:33N 36°01' W 000°13'0 0.3
2014-Sep-16 04:33N 36°01' W 000°13'0 0.3
2014-Sep-16 03:33N 36°01' W 000°12'5 0.8
2014-Sep-15 21:27N 36°03' W 000°07'1111.5
2014-Sep-15 20:27N 36°11' E 000°04'1411.8
2014-Sep-15 19:17N 36°20' E 000°17'912.2
2014-Sep-15 18:33N 36°26' E 000°25'1312.5
2014-Sep-15 17:33N 36°34' E 000°37'1312.7
2014-Sep-15 16:33N 36°40' E 000°51'1211.9
2014-Sep-15 15:30N 36°45' E 001°05'1111.9
2014-Sep-15 14:33N 36°46' E 001°19'2311.7
2014-Sep-15 12:33N 36°48' E 001°48'  
Track history (hours):
 
Tides and Currents Weather Stations Pressure Air Temp Water Temp Dewpoint Dewpoint Depression Visibility Wind Speed Wind Dir Waves Ship Positions

Gaz Palmyra

Last reported at 2014-Sep-20 11:29 UTC. Time now 2014-Sep-23 16:25 UTC.
Position N 36°46' E 003°05'.

Length 137 m; draft 8 m.

Type: Ship (hazmat cat C). MMSI: 353247000.

Date/timePositionNaut miles runAvg speedWind from/ knotsBaromVisibWave heightAir tempDewpointWater temp
2014-Sep-20 11:29N 36°46' E 003°05'2 2.0
2014-Sep-20 10:33N 36°46' E 003°07'0 0.0
2014-Sep-20 09:21N 36°46' E 003°07'0 0.0
2014-Sep-20 06:33N 36°46' E 003°07'0 0.1
2014-Sep-20 05:27N 36°47' E 003°07'0 0.1
2014-Sep-20 03:30N 36°46' E 003°06'0 0.0
2014-Sep-19 17:33N 36°46' E 003°06'0 0.1
2014-Sep-19 16:21N 36°46' E 003°07'  
2014-Sep-16 13:03N 35°53' W 000°15'2 4.2
2014-Sep-16 12:33N 35°55' W 000°14'1 0.8
2014-Sep-16 11:11N 35°56' W 000°14'2 2.6
2014-Sep-16 10:16N 35°58' W 000°14'3 2.5
2014-Sep-16 09:13N 36°01' W 000°14'0 0.1
2014-Sep-16 08:32N 36°01' W 000°14'0 0.2
2014-Sep-16 07:32N 36°01' W 000°13'0 0.2
2014-Sep-16 06:15N 36°01' W 000°13'0 0.2
2014-Sep-16 05:33N 36°01' W 000°13'0 0.3
2014-Sep-16 04:33N 36°01' W 000°13'0 0.3
2014-Sep-16 03:33N 36°01' W 000°12'5 0.8
2014-Sep-15 21:27N 36°03' W 000°07'1111.5
2014-Sep-15 20:27N 36°11' E 000°04'1411.8
2014-Sep-15 19:17N 36°20' E 000°17'912.2
2014-Sep-15 18:33N 36°26' E 000°25'1312.5
2014-Sep-15 17:33N 36°34' E 000°37'1312.7
2014-Sep-15 16:33N 36°40' E 000°51'1211.9
2014-Sep-15 15:30N 36°45' E 001°05'1111.9
2014-Sep-15 14:33N 36°46' E 001°19'2311.7
2014-Sep-15 12:33N 36°48' E 001°48'  

Dump ship's entire track history